Time;durP1;ratioP1;P1;durP2;ratioP2;P2;SDS_P1;SDS_P2;PMS_P1;PMS_P2;Temp;Humidity;BMP_temperature;BMP_pressure;BME280_temperature;BME280_humidity;BME280_pressure;Samples;Min_cycle;Max_cycle;Signal;HPM_P1;HPM_P2
2021/04/21 00:00:53;;;;;;;;;;;3.50;80.90;;;;;;5013711;28;20112;-75
2021/04/21 00:03:19;;;;;;;14.15;8.13;;;3.40;80.80;;;;;;5007350;28;19909;-76
2021/04/21 00:05:48;;;;;;;11.82;7.55;;;3.50;81.00;;;;;;5007014;28;20113;-76
2021/04/21 00:08:15;;;;;;;13.07;7.22;;;3.50;81.10;;;;;;5006101;28;20025;-76
2021/04/21 00:10:41;;;;;;;12.30;7.28;;;3.60;81.20;;;;;;5004666;28;20089;-76
2021/04/21 00:13:08;;;;;;;15.00;8.20;;;3.60;80.90;;;;;;5005932;28;20025;-76
2021/04/21 00:15:35;;;;;;;13.23;7.80;;;3.60;81.20;;;;;;5004680;28;20022;-75
2021/04/21 00:18:03;;;;;;;13.50;7.80;;;3.60;81.30;;;;;;5004755;28;20095;-76
2021/04/21 00:20:30;;;;;;;14.23;8.05;;;3.60;80.60;;;;;;5004276;28;20396;-77
2021/04/21 00:22:58;;;;;;;15.88;8.80;;;3.60;81.20;;;;;;5005965;28;20021;-76
2021/04/21 00:25:28;;;;;;;17.20;7.75;;;3.50;80.80;;;;;;5008084;28;20168;-76
2021/04/21 00:27:54;;;;;;;13.38;8.20;;;3.50;80.60;;;;;;5006220;28;20046;-76
2021/04/21 00:30:27;;;;;;;14.32;8.10;;;3.50;80.80;;;;;;5004302;28;20121;-76
2021/04/21 00:32:54;;;;;;;15.48;7.60;;;3.50;80.50;;;;;;5004564;28;20037;-75
2021/04/21 00:35:23;;;;;;;17.08;8.05;;;3.40;80.80;;;;;;5003768;28;20566;-75
2021/04/21 00:38:01;;;;;;;13.85;8.07;;;3.40;80.90;;;;;;5006579;28;20026;-75
2021/04/21 00:40:53;;;;;;;15.18;8.13;;;3.40;80.60;;;;;;5005802;28;20034;-76
2021/04/21 00:43:46;;;;;;;11.60;7.68;;;3.20;80.00;;;;;;5000895;28;20030;-74
2021/04/21 00:46:21;;;;;;;12.20;7.07;;;3.20;79.40;;;;;;5000882;28;20129;-76
2021/04/21 00:48:55;;;;;;;9.00;6.20;;;3.10;79.50;;;;;;5005745;28;20556;-76
2021/04/21 00:51:32;;;;;;;12.32;7.32;;;3.00;79.40;;;;;;5008271;28;20026;-75
2021/04/21 00:54:44;;;;;;;16.30;6.90;;;3.00;80.50;;;;;;5005447;28;20018;-77
2021/04/21 00:57:58;;;;;;;16.95;8.27;;;3.00;80.90;;;;;;5002613;28;20791;-77
2021/04/21 01:00:30;;;;;;;10.55;6.20;;;3.00;81.00;;;;;;5001210;28;20046;-75
2021/04/21 01:03:05;;;;;;;10.38;6.07;;;2.90;80.00;;;;;;5004993;28;20084;-77
2021/04/21 01:05:36;;;;;;;8.93;5.85;;;2.80;79.60;;;;;;5001468;28;20026;-76
2021/04/21 01:08:05;;;;;;;15.13;8.38;;;2.90;80.50;;;;;;5005540;28;20049;-76
2021/04/21 01:10:36;;;;;;;15.10;8.45;;;2.80;81.10;;;;;;5006807;28;20030;-75
2021/04/21 01:13:03;;;;;;;15.68;7.40;;;2.80;81.80;;;;;;5005947;28;20022;-75
2021/04/21 01:15:31;;;;;;;13.25;8.00;;;2.80;82.00;;;;;;5003911;28;20136;-76
2021/04/21 01:17:58;;;;;;;20.88;7.72;;;2.70;81.80;;;;;;5005836;28;20112;-76
2021/04/21 01:20:41;;;;;;;11.77;6.95;;;2.70;82.00;;;;;;5001823;28;20038;-76
2021/04/21 01:23:12;;;;;;;14.05;7.88;;;2.80;82.00;;;;;;5000670;28;20022;-76
2021/04/21 01:25:50;;;;;;;12.25;7.43;;;2.80;82.10;;;;;;5003963;28;20030;-76
2021/04/21 01:28:21;;;;;;;15.63;8.48;;;2.80;81.90;;;;;;5005188;28;20030;-75
2021/04/21 01:30:48;;;;;;;14.68;8.27;;;2.90;82.10;;;;;;5006708;28;20080;-74
2021/04/21 01:33:21;;;;;;;12.75;7.53;;;2.90;82.20;;;;;;5004593;28;20032;-76
2021/04/21 01:35:59;;;;;;;12.32;6.63;;;2.90;81.90;;;;;;5004221;28;20082;-76
2021/04/21 01:38:26;;;;;;;11.25;6.50;;;2.90;80.20;;;;;;5004378;28;20026;-76
2021/04/21 01:40:56;;;;;;;10.75;6.55;;;2.60;76.50;;;;;;5007302;28;20064;-76
2021/04/21 01:43:30;;;;;;;11.10;6.28;;;2.50;76.40;;;;;;5005923;28;20022;-76
2021/04/21 01:45:59;;;;;;;11.32;6.32;;;2.40;77.10;;;;;;5006856;28;20018;-75
2021/04/21 01:48:26;;;;;;;15.48;9.40;;;2.40;77.90;;;;;;5004017;28;20022;-76
2021/04/21 01:50:53;;;;;;;9.77;6.67;;;2.40;79.90;;;;;;5004062;28;20041;-75
2021/04/21 01:53:38;;;;;;;14.07;6.82;;;2.30;79.90;;;;;;5005063;28;20080;-74
2021/04/21 01:56:19;;;;;;;12.30;7.10;;;2.30;81.40;;;;;;5003945;28;20033;-75
2021/04/21 02:02:24;;;;;;;10.35;7.72;;;2.30;82.20;;;;;;5881259;23;20129;-76
2021/04/21 02:07:41;;;;;;;14.82;7.28;;;2.20;82.50;;;;;;5346263;23;20050;-76
2021/04/21 02:10:32;;;;;;;10.40;6.38;;;2.30;81.90;;;;;;4980271;28;20034;-75
2021/04/21 02:13:10;;;;;;;15.23;5.57;;;2.20;80.90;;;;;;4984827;28;20037;-76
2021/04/21 02:15:57;;;;;;;19.77;6.18;;;2.20;80.60;;;;;;4986786;28;20030;-76
2021/04/21 02:19:00;;;;;;;10.18;5.30;;;2.10;80.60;;;;;;4963653;28;20106;-76
2021/04/21 02:21:45;;;;;;;10.57;6.35;;;2.10;80.50;;;;;;4969015;28;20504;-76
2021/04/21 02:24:29;;;;;;;11.95;6.53;;;2.10;81.40;;;;;;4965696;28;20037;-76
2021/04/21 02:27:00;;;;;;;11.93;6.60;;;2.10;81.70;;;;;;4967853;28;20034;-75
2021/04/21 02:29:46;;;;;;;13.88;6.25;;;2.10;82.00;;;;;;4965872;28;20022;-76
2021/04/21 02:32:23;;;;;;;14.05;6.80;;;2.10;82.10;;;;;;4968445;28;20046;-76
2021/04/21 02:35:10;;;;;;;8.38;5.90;;;2.10;82.50;;;;;;4971300;28;20054;-75
2021/04/21 02:37:57;;;;;;;8.57;5.88;;;2.10;82.30;;;;;;4971769;28;20027;-75
2021/04/21 02:40:43;;;;;;;7.90;5.25;;;2.10;82.00;;;;;;4973206;28;20089;-76
2021/04/21 02:43:30;;;;;;;8.57;5.07;;;2.00;80.50;;;;;;4971268;28;20834;-75
2021/04/21 02:46:17;;;;;;;8.68;4.93;;;1.90;80.00;;;;;;4975009;28;20030;-75
2021/04/21 02:48:43;;;;;;;7.43;4.97;;;1.90;80.10;;;;;;4964353;28;20039;-75
2021/04/21 02:51:24;;;;;;;12.88;6.20;;;1.80;78.90;;;;;;4972752;28;20019;-75
2021/04/21 02:54:01;;;;;;;10.02;5.60;;;1.90;78.60;;;;;;4971698;28;20657;-76
2021/04/21 02:56:39;;;;;;;8.82;5.18;;;1.80;78.40;;;;;;4971720;28;20035;-76
2021/04/21 02:59:38;;;;;;;10.18;5.78;;;1.90;79.30;;;;;;4970680;28;20077;-76
2021/04/21 03:02:26;;;;;;;8.38;6.38;;;1.80;80.90;;;;;;4970613;28;20038;-76
2021/04/21 03:05:15;;;;;;;10.75;6.47;;;1.80;80.90;;;;;;4969663;28;20030;-75
2021/04/21 03:08:03;;;;;;;11.40;6.97;;;1.80;82.00;;;;;;4967947;28;20035;-76
2021/04/21 03:10:43;;;;;;;9.52;6.32;;;1.80;82.70;;;;;;4972332;28;20034;-76
2021/04/21 03:13:16;;;;;;;14.23;7.50;;;1.60;84.40;;;;;;4970535;28;20038;-76
2021/04/21 03:15:46;;;;;;;12.73;7.82;;;1.60;83.70;;;;;;4972298;28;20023;-75
2021/04/21 03:18:20;;;;;;;13.10;7.45;;;1.60;83.10;;;;;;4970793;28;20585;-76
2021/04/21 03:20:52;;;;;;;13.18;7.70;;;1.60;83.10;;;;;;4971441;28;20548;-77
2021/04/21 03:23:21;;;;;;;13.88;7.88;;;1.70;83.60;;;;;;4969134;28;20053;-76
2021/04/21 03:25:49;;;;;;;;;;;1.70;83.00;;;;;;4971101;28;20050;-75
2021/04/21 03:28:20;;;;;;;9.23;5.90;;;1.60;82.00;;;;;;4969936;28;19969;-76
2021/04/21 03:30:51;;;;;;;10.00;5.75;;;1.50;80.50;;;;;;4969412;28;20039;-76
2021/04/21 03:33:25;;;;;;;13.60;6.57;;;1.30;80.80;;;;;;4982427;28;20114;-76
2021/04/21 03:35:52;;;;;;;9.98;6.10;;;1.20;81.30;;;;;;4971609;28;20490;-76
2021/04/21 03:38:20;;;;;;;8.65;5.07;;;1.10;81.00;;;;;;4969890;28;20014;-76
2021/04/21 03:40:46;;;;;;;9.23;6.20;;;1.00;81.90;;;;;;4973739;28;20019;-76
2021/04/21 03:43:13;;;;;;;12.40;6.07;;;1.00;81.90;;;;;;4970098;28;20422;-76
2021/04/21 03:45:41;;;;;;;14.95;6.43;;;1.00;83.10;;;;;;4970518;28;20050;-76
2021/04/21 03:48:08;;;;;;;9.98;5.35;;;0.90;83.30;;;;;;4970047;28;20030;-76
2021/04/21 03:50:36;;;;;;;9.45;6.15;;;0.90;84.00;;;;;;4971456;28;20100;-76
2021/04/21 03:53:07;;;;;;;17.27;5.50;;;1.00;83.70;;;;;;4966405;28;20027;-76
2021/04/21 03:55:34;;;;;;;5.97;4.85;;;0.90;84.10;;;;;;4962842;28;20101;-75
2021/04/21 03:58:11;;;;;;;11.10;6.20;;;1.00;84.60;;;;;;4969126;28;20109;-76
2021/04/21 04:00:38;;;;;;;12.40;5.65;;;1.10;84.10;;;;;;4971030;28;20026;-76
2021/04/21 04:03:09;;;;;;;8.40;5.47;;;1.10;84.50;;;;;;4968477;28;20026;-75
2021/04/21 04:05:57;;;;;;;9.07;6.40;;;1.10;84.30;;;;;;4961948;28;20034;-76
2021/04/21 04:08:26;;;;;;;10.43;6.07;;;1.10;84.20;;;;;;4963087;28;20022;-76
2021/04/21 04:10:55;;;;;;;8.30;5.20;;;1.10;84.00;;;;;;4970500;28;20077;-75
2021/04/21 04:13:25;;;;;;;6.90;5.65;;;1.20;83.80;;;;;;4968650;28;20027;-76
2021/04/21 04:15:52;;;;;;;12.30;5.97;;;1.20;83.40;;;;;;4970158;28;20077;-75
2021/04/21 04:18:21;;;;;;;11.63;6.65;;;1.30;82.90;;;;;;4967976;28;20015;-76
2021/04/21 04:20:50;;;;;;;14.77;6.40;;;1.30;83.30;;;;;;4970741;28;20030;-76
2021/04/21 04:23:18;;;;;;;8.93;6.53;;;1.30;83.60;;;;;;4967936;28;20118;-76
2021/04/21 04:25:46;;;;;;;;;;;1.30;83.40;;;;;;4969487;28;20106;-75
2021/04/21 04:28:12;;;;;;;12.57;6.97;;;1.40;83.60;;;;;;4966571;28;19918;-75
2021/04/21 04:30:39;;;;;;;11.90;6.32;;;1.40;83.30;;;;;;4967578;28;20543;-75
2021/04/21 04:33:06;;;;;;;12.93;8.07;;;1.40;83.20;;;;;;4968840;28;20022;-76
2021/04/21 04:35:34;;;;;;;14.43;7.47;;;1.40;82.70;;;;;;4969748;28;20062;-76
2021/04/21 04:38:01;;;;;;;14.90;7.78;;;1.40;82.90;;;;;;4968173;28;20018;-76
2021/04/21 04:40:27;;;;;;;15.32;7.72;;;1.40;83.30;;;;;;4970193;28;20019;-76
2021/04/21 04:42:53;;;;;;;12.15;7.50;;;1.50;83.80;;;;;;4968986;28;20414;-76
2021/04/21 04:45:21;;;;;;;12.35;7.60;;;1.50;83.50;;;;;;4968285;28;20489;-76
2021/04/21 04:47:51;;;;;;;11.38;7.13;;;1.60;83.20;;;;;;4969460;28;20122;-75
2021/04/21 04:50:22;;;;;;;14.02;7.72;;;1.60;83.60;;;;;;4967364;28;20030;-75
2021/04/21 04:52:54;;;;;;;14.45;6.70;;;1.60;83.50;;;;;;4966887;28;20097;-76
2021/04/21 04:55:23;;;;;;;13.02;6.43;;;1.50;81.80;;;;;;4967391;28;20027;-76
2021/04/21 04:57:51;;;;;;;10.02;6.35;;;1.40;81.50;;;;;;4968764;28;20397;-75
2021/04/21 05:00:19;;;;;;;11.35;6.18;;;1.40;81.90;;;;;;4967132;28;20117;-75
2021/04/21 05:02:53;;;;;;;12.98;7.35;;;1.30;82.10;;;;;;4970249;28;20085;-76
2021/04/21 05:05:20;;;;;;;11.93;7.20;;;1.30;81.90;;;;;;4969295;28;20041;-76
2021/04/21 05:07:58;;;;;;;12.50;7.30;;;1.30;82.10;;;;;;4965345;28;20209;-76
2021/04/21 05:10:29;;;;;;;9.80;7.07;;;1.30;82.50;;;;;;4965825;28;20057;-75
2021/04/21 05:13:03;;;;;;;8.95;6.50;;;1.30;82.90;;;;;;4966963;28;20015;-75
2021/04/21 05:15:37;;;;;;;12.55;7.20;;;1.30;82.50;;;;;;4972171;28;20031;-75
2021/04/21 05:18:26;;;;;;;15.32;7.90;;;1.30;83.10;;;;;;4963711;28;20482;-76
2021/04/21 05:21:19;;;;;;;13.05;7.88;;;1.50;83.20;;;;;;4964178;28;20035;-76
2021/04/21 05:24:09;;;;;;;13.93;7.25;;;1.50;83.60;;;;;;4976038;28;20027;-76
2021/04/21 05:26:53;;;;;;;17.23;8.55;;;1.60;83.70;;;;;;4975654;28;20078;-76
2021/04/21 05:29:40;;;;;;;11.60;7.03;;;1.70;83.70;;;;;;4961096;28;20029;-75
2021/04/21 05:32:28;;;;;;;16.70;8.32;;;1.70;84.10;;;;;;4962545;28;20407;-75
2021/04/21 05:34:53;;;;;;;12.82;7.00;;;1.80;84.10;;;;;;4958169;28;20197;-75
2021/04/21 05:37:47;;;;;;;12.07;6.72;;;1.80;85.00;;;;;;4964833;28;20094;-76
2021/04/21 05:40:43;;;;;;;12.98;6.97;;;1.90;84.80;;;;;;4955975;28;20090;-75
2021/04/21 05:43:35;;;;;;;14.48;6.97;;;2.00;84.70;;;;;;4956346;28;20027;-75
2021/04/21 05:46:51;;;;;;;14.00;6.82;;;2.00;85.90;;;;;;4931696;28;20039;-75
2021/04/21 05:49:38;;;;;;;18.88;9.35;;;2.10;85.60;;;;;;4958305;28;20494;-75
2021/04/21 05:52:34;;;;;;;16.83;9.00;;;2.20;85.40;;;;;;4960099;28;20027;-76
2021/04/21 05:55:18;;;;;;;16.65;9.00;;;2.30;85.30;;;;;;4957427;28;20055;-76
2021/04/21 05:58:12;;;;;;;22.33;9.75;;;2.40;86.10;;;;;;4963390;28;20179;-76
2021/04/21 06:01:06;;;;;;;18.65;8.75;;;2.50;86.50;;;;;;4966413;28;20410;-76
2021/04/21 06:03:34;;;;;;;19.85;9.85;;;2.60;85.50;;;;;;4964425;28;20163;-76
2021/04/21 06:06:04;;;;;;;22.52;10.50;;;2.70;85.10;;;;;;4959726;28;20041;-76
2021/04/21 06:08:30;;;;;;;22.33;10.00;;;2.90;85.20;;;;;;4967940;28;20106;-76
2021/04/21 06:10:56;;;;;;;20.58;9.90;;;3.00;85.40;;;;;;4973552;28;20030;-76
2021/04/21 06:13:32;;;;;;;25.73;11.02;;;3.10;85.90;;;;;;4968370;28;20396;-76
2021/04/21 06:15:59;;;;;;;23.27;12.23;;;3.30;86.60;;;;;;4971160;28;20018;-75
2021/04/21 06:18:25;;;;;;;23.10;12.13;;;3.40;86.90;;;;;;4966516;28;20022;-75
2021/04/21 06:20:52;;;;;;;29.80;12.50;;;3.50;86.10;;;;;;4974007;28;20034;-76
2021/04/21 06:23:23;;;;;;;25.30;12.38;;;3.70;85.70;;;;;;4966528;28;20031;-75
2021/04/21 06:25:57;;;;;;;24.58;11.77;;;3.80;85.60;;;;;;4968544;28;20033;-76
2021/04/21 06:28:23;;;;;;;27.20;13.27;;;3.90;85.60;;;;;;4970956;28;20026;-76
2021/04/21 06:31:03;;;;;;;25.00;11.50;;;4.00;85.80;;;;;;4972617;28;20113;-76
2021/04/21 06:33:37;;;;;;;24.70;12.35;;;4.20;86.40;;;;;;4966387;28;20110;-76
2021/04/21 06:36:04;;;;;;;28.67;12.85;;;4.30;85.70;;;;;;4970672;28;20031;-77
2021/04/21 06:38:31;;;;;;;30.42;12.35;;;4.40;86.20;;;;;;4967273;28;20031;-76
2021/04/21 06:40:57;;;;;;;29.73;14.52;;;4.60;86.70;;;;;;4971494;28;20113;-76
2021/04/21 06:43:28;;;;;;;27.88;13.73;;;4.70;86.50;;;;;;4970244;28;20426;-76
2021/04/21 06:45:53;;;;;;;25.65;12.88;;;4.90;86.40;;;;;;4971669;28;20429;-75
2021/04/21 06:48:36;;;;;;;31.55;15.38;;;5.00;86.70;;;;;;4969946;28;20026;-77
2021/04/21 06:51:10;;;;;;;35.90;15.00;;;5.10;85.70;;;;;;4972098;28;20090;-76
2021/04/21 06:53:36;;;;;;;31.13;15.30;;;5.20;86.30;;;;;;4971765;28;20018;-76
2021/04/21 06:56:03;;;;;;;36.25;16.73;;;5.30;86.00;;;;;;4969292;28;20038;-76
2021/04/21 06:58:30;;;;;;;35.63;17.15;;;5.40;86.00;;;;;;4967172;28;20045;-76
2021/04/21 07:01:07;;;;;;;31.40;14.93;;;5.50;85.70;;;;;;4970036;28;20035;-75
2021/04/21 07:03:32;;;;;;;28.00;14.45;;;5.60;86.00;;;;;;4963201;28;20026;-76
2021/04/21 07:05:59;;;;;;;27.88;14.02;;;5.80;86.50;;;;;;4966244;28;20025;-76
2021/04/21 07:08:32;;;;;;;31.60;14.93;;;5.90;86.10;;;;;;4971625;28;20045;-76
2021/04/21 07:10:59;;;;;;;34.70;15.80;;;6.00;85.00;;;;;;4966268;28;20023;-76
2021/04/21 07:13:36;;;;;;;36.35;16.90;;;6.10;85.50;;;;;;4960931;28;20110;-76
2021/04/21 07:16:13;;;;;;;32.78;14.30;;;6.30;85.40;;;;;;4958104;28;20019;-75
2021/04/21 07:18:43;;;;;;;35.33;16.02;;;6.50;84.60;;;;;;4957937;28;20038;-76
2021/04/21 07:21:10;;;;;;;38.15;17.50;;;6.70;84.20;;;;;;4956556;28;20031;-76
2021/04/21 07:23:39;;;;;;;33.38;15.60;;;6.80;83.60;;;;;;4961207;28;20027;-77
2021/04/21 07:26:06;;;;;;;35.88;15.88;;;7.00;83.30;;;;;;4969256;28;20031;-76
2021/04/21 07:28:37;;;;;;;39.38;17.42;;;7.20;82.20;;;;;;4957681;28;20505;-76
2021/04/21 07:31:15;;;;;;;38.70;17.00;;;7.40;83.00;;;;;;4954720;28;20486;-76
2021/04/21 07:33:43;;;;;;;41.40;16.73;;;7.60;81.90;;;;;;4956968;28;20019;-76
2021/04/21 07:36:17;;;;;;;38.03;17.40;;;7.80;80.20;;;;;;4955787;28;20520;-76
2021/04/21 07:38:54;;;;;;;29.70;14.18;;;7.90;79.70;;;;;;4968439;28;20282;-76
2021/04/21 07:41:42;;;;;;;32.20;14.88;;;8.20;79.00;;;;;;4965568;28;20445;-76
2021/04/21 07:44:28;;;;;;;33.58;15.77;;;8.40;77.60;;;;;;4985350;28;20026;-76
2021/04/21 07:47:05;;;;;;;27.00;14.20;;;8.60;77.60;;;;;;4966445;28;20361;-76
2021/04/21 07:49:32;;;;;;;34.10;17.42;;;8.80;77.90;;;;;;4963787;28;20030;-76
2021/04/21 07:51:58;;;;;;;29.60;14.98;;;8.90;77.90;;;;;;4964703;28;20050;-76
2021/04/21 07:54:25;;;;;;;26.15;13.50;;;9.10;76.30;;;;;;4964761;28;20105;-76
2021/04/21 07:56:58;;;;;;;28.43;13.97;;;9.30;75.60;;;;;;4964545;28;20022;-76
2021/04/21 07:59:28;;;;;;;31.55;13.57;;;9.50;75.40;;;;;;4966471;28;20887;-76
2021/04/21 08:02:01;;;;;;;24.25;12.50;;;9.60;74.70;;;;;;4972825;28;20058;-76
2021/04/21 08:04:28;;;;;;;23.85;12.45;;;9.80;74.10;;;;;;4970544;28;20046;-76
2021/04/21 08:06:57;;;;;;;22.92;11.73;;;9.90;73.10;;;;;;4971925;28;20031;-76
2021/04/21 08:09:23;;;;;;;;;;;10.10;72.00;;;;;;4968738;28;20035;-75
2021/04/21 08:12:13;;;;;;;22.55;12.20;;;10.20;71.40;;;;;;4968434;28;19913;-76
2021/04/21 08:14:44;;;;;;;15.25;9.20;;;10.30;71.80;;;;;;4966013;28;20031;-75
2021/04/21 08:17:10;;;;;;;18.48;9.77;;;10.40;70.00;;;;;;4985799;28;20019;-76
2021/04/21 08:19:39;;;;;;;21.20;10.93;;;10.50;67.70;;;;;;4968699;28;20033;-76
2021/04/21 08:22:06;;;;;;;20.83;10.77;;;10.60;68.80;;;;;;4969953;28;20500;-75
2021/04/21 08:24:41;;;;;;;20.80;10.75;;;10.70;68.70;;;;;;4968466;28;20027;-75
2021/04/21 08:27:10;;;;;;;19.33;10.93;;;10.80;68.90;;;;;;4967345;28;20023;-75
2021/04/21 08:29:35;;;;;;;18.92;10.18;;;11.00;68.50;;;;;;4981171;28;20081;-76
2021/04/21 08:32:01;;;;;;;21.23;10.73;;;11.20;64.80;;;;;;4969932;28;20453;-76
2021/04/21 08:34:27;;;;;;;20.55;10.93;;;11.30;63.00;;;;;;4984983;28;20473;-75
2021/04/21 08:36:52;;;;;;;15.77;9.02;;;11.50;64.70;;;;;;4976438;28;20032;-77
2021/04/21 08:39:18;;;;;;;15.65;8.70;;;11.60;61.50;;;;;;4973912;28;20035;-75
2021/04/21 08:41:45;;;;;;;14.18;8.20;;;11.70;62.20;;;;;;4977694;28;20030;-75
2021/04/21 08:44:11;;;;;;;15.77;8.60;;;11.70;61.10;;;;;;4968508;28;20066;-75
2021/04/21 08:46:38;;;;;;;13.13;6.80;;;11.90;60.50;;;;;;4965240;28;20029;-76
2021/04/21 08:49:05;;;;;;;11.45;6.85;;;12.00;59.90;;;;;;4973369;28;20031;-76
2021/04/21 08:51:32;;;;;;;14.23;8.37;;;12.20;58.80;;;;;;4969238;28;20027;-76
2021/04/21 08:54:03;;;;;;;15.95;9.23;;;12.20;57.80;;;;;;4972271;28;20042;-75
2021/04/21 08:56:32;;;;;;;14.95;8.52;;;12.40;58.50;;;;;;4969726;28;20632;-75
2021/04/21 08:58:58;;;;;;;19.63;9.68;;;12.50;59.10;;;;;;4965938;28;20038;-75
2021/04/21 09:01:25;;;;;;;15.65;8.32;;;12.70;59.10;;;;;;4965682;28;20039;-76
2021/04/21 09:03:51;;;;;;;15.77;9.05;;;12.70;56.60;;;;;;4966203;28;20031;-76
2021/04/21 09:06:18;;;;;;;17.92;8.93;;;12.70;59.20;;;;;;4976932;28;20033;-75
2021/04/21 09:08:55;;;;;;;15.27;8.75;;;12.80;57.10;;;;;;4968759;28;20039;-75
2021/04/21 09:11:21;;;;;;;14.73;8.68;;;12.90;56.70;;;;;;4974505;28;20026;-75
2021/04/21 09:13:47;;;;;;;15.32;9.90;;;13.10;56.60;;;;;;4968481;28;20019;-75
2021/04/21 09:16:14;;;;;;;15.70;9.75;;;13.10;56.50;;;;;;4979258;28;20532;-75
2021/04/21 09:18:40;;;;;;;16.30;8.65;;;13.20;56.60;;;;;;4964062;28;20031;-75
2021/04/21 09:21:15;;;;;;;14.27;8.48;;;13.30;54.80;;;;;;4967910;28;20485;-75
2021/04/21 09:23:42;;;;;;;17.35;9.63;;;13.20;51.90;;;;;;4965357;28;20038;-75
2021/04/21 09:26:31;;;;;;;17.52;8.88;;;13.20;53.60;;;;;;4978072;28;20022;-75
2021/04/21 09:28:57;;;;;;;16.38;9.07;;;13.50;53.40;;;;;;4968599;28;20034;-75
2021/04/21 09:31:26;;;;;;;13.85;8.57;;;13.60;56.10;;;;;;4975082;28;20194;-74
2021/04/21 09:34:14;;;;;;;15.30;9.25;;;13.60;53.60;;;;;;4967731;28;20046;-75
2021/04/21 09:36:45;;;;;;;13.15;8.52;;;13.60;52.50;;;;;;4970606;28;20062;-75
2021/04/21 09:39:17;;;;;;;14.68;9.25;;;13.70;54.70;;;;;;4967078;28;20039;-75
2021/04/21 09:41:44;;;;;;;15.35;8.63;;;13.80;54.70;;;;;;4978052;28;20515;-75
2021/04/21 09:44:11;;;;;;;16.55;9.25;;;13.80;53.80;;;;;;4973785;28;20022;-75
2021/04/21 09:46:39;;;;;;;15.75;8.75;;;13.80;53.30;;;;;;4971505;28;20398;-75
2021/04/21 09:49:29;;;;;;;12.73;8.52;;;14.00;53.60;;;;;;4966594;28;20149;-75
2021/04/21 09:52:01;;;;;;;15.50;9.05;;;14.20;52.80;;;;;;4967191;28;20504;-75
2021/04/21 09:54:37;;;;;;;16.15;9.57;;;14.20;54.50;;;;;;4968949;28;20058;-74
2021/04/21 09:57:17;;;;;;;15.20;8.38;;;14.20;51.70;;;;;;4967795;28;20019;-76
2021/04/21 09:59:55;;;;;;;13.50;8.10;;;14.30;50.90;;;;;;4968967;28;20034;-76
2021/04/21 10:02:33;;;;;;;13.63;8.32;;;14.50;50.20;;;;;;4970183;28;20049;-76
2021/04/21 10:05:24;;;;;;;16.02;8.75;;;14.60;52.00;;;;;;4969160;28;20031;-76
2021/04/21 10:08:10;;;;;;;12.75;8.68;;;14.80;51.20;;;;;;4970332;28;20633;-73
2021/04/21 10:10:36;;;;;;;13.80;8.45;;;14.80;50.40;;;;;;4971733;28;20441;-76
2021/04/21 10:13:12;;;;;;;11.88;7.57;;;14.70;48.20;;;;;;4970033;28;20023;-76
2021/04/21 10:15:38;;;;;;;15.38;9.10;;;14.70;48.50;;;;;;4970581;28;20113;-75
2021/04/21 10:18:05;;;;;;;11.73;8.38;;;14.80;47.70;;;;;;4969544;28;20098;-76
2021/04/21 10:20:32;;;;;;;11.57;7.35;;;14.80;47.10;;;;;;4972054;28;20023;-76
2021/04/21 10:22:58;;;;;;;13.57;8.00;;;14.80;47.80;;;;;;4968783;28;20038;-76
2021/04/21 10:25:25;;;;;;;10.43;6.65;;;14.80;45.60;;;;;;4968114;28;20125;-76
2021/04/21 10:27:51;;;;;;;10.63;6.97;;;14.70;44.70;;;;;;4969589;28;20034;-75
2021/04/21 10:30:17;;;;;;;11.38;6.70;;;14.50;45.40;;;;;;4972305;28;20101;-76
2021/04/21 10:32:43;;;;;;;11.30;6.90;;;14.50;44.50;;;;;;4974791;28;20054;-76
2021/04/21 10:35:09;;;;;;;11.20;7.18;;;14.60;45.60;;;;;;4972912;28;20365;-74
2021/04/21 10:37:40;;;;;;;12.15;7.03;;;14.70;46.80;;;;;;4987936;28;20088;-76
2021/04/21 10:40:07;;;;;;;10.57;7.55;;;14.50;43.90;;;;;;4965133;28;20026;-78
2021/04/21 10:42:53;;;;;;;13.27;8.20;;;14.40;45.90;;;;;;4967652;28;20109;-76
2021/04/21 10:45:22;;;;;;;15.55;8.40;;;14.30;47.10;;;;;;4989232;28;20031;-76
2021/04/21 10:47:49;;;;;;;13.77;8.60;;;14.20;50.90;;;;;;4971482;28;20030;-75
2021/04/21 10:50:33;;;;;;;14.43;8.90;;;14.10;52.70;;;;;;4965995;28;20050;-76
2021/04/21 10:52:58;;;;;;;14.98;9.40;;;14.00;52.40;;;;;;4969640;28;20077;-75
2021/04/21 10:55:38;;;;;;;15.25;8.70;;;14.00;51.80;;;;;;4967385;28;20579;-76
2021/04/21 10:58:12;;;;;;;14.35;8.88;;;14.20;52.30;;;;;;4961694;28;20110;-76
2021/04/21 11:00:39;;;;;;;15.65;9.32;;;14.30;50.70;;;;;;4965536;28;20039;-76
2021/04/21 11:03:06;;;;;;;15.63;9.63;;;14.50;51.80;;;;;;4972866;28;20015;-76
2021/04/21 11:05:43;;;;;;;15.40;8.50;;;14.50;49.70;;;;;;4969180;28;20507;-76
2021/04/21 11:08:27;;;;;;;20.75;9.88;;;14.70;46.20;;;;;;4966716;28;20023;-76
2021/04/21 11:11:04;;;;;;;15.95;9.85;;;14.70;51.50;;;;;;4966859;28;20061;-76
2021/04/21 11:13:32;;;;;;;14.60;9.07;;;14.80;49.80;;;;;;4969743;28;20034;-76
2021/04/21 11:15:58;;;;;;;21.75;9.30;;;14.80;46.20;;;;;;4971657;28;20042;-76
2021/04/21 11:18:25;;;;;;;16.33;8.73;;;14.80;48.10;;;;;;4968539;28;20506;-76
2021/04/21 11:20:52;;;;;;;15.20;9.23;;;14.70;45.30;;;;;;4970237;28;20027;-76
2021/04/21 11:23:56;;;;;;;15.45;8.93;;;14.70;46.10;;;;;;4969434;28;20030;-76
2021/04/21 11:28:59;;;;;;;13.00;8.32;;;14.70;48.70;;;;;;4966841;28;20065;-76
2021/04/21 11:34:32;;;;;;;13.77;9.38;;;14.90;48.20;;;;;;4966336;28;20043;-76
2021/04/21 11:37:09;;;;;;;15.77;9.18;;;15.10;46.70;;;;;;4969861;28;20037;-76
2021/04/21 11:39:48;;;;;;;13.82;8.07;;;15.20;46.40;;;;;;4967412;28;20054;-77
2021/04/21 11:42:19;;;;;;;12.35;8.23;;;15.30;44.40;;;;;;4968488;28;20715;-76
2021/04/21 11:44:54;;;;;;;13.27;8.25;;;15.20;46.10;;;;;;4967356;28;20037;-75
2021/04/21 11:47:46;;;;;;;11.65;7.15;;;15.20;45.90;;;;;;4969071;28;20085;-76
2021/04/21 11:50:17;;;;;;;11.45;7.53;;;15.40;45.80;;;;;;4971553;28;20045;-76
2021/04/21 11:53:14;;;;;;;11.13;7.55;;;15.50;46.30;;;;;;4969829;28;20371;-76
2021/04/21 11:56:08;;;;;;;15.02;8.27;;;15.50;43.20;;;;;;4975924;28;20102;-76
2021/04/21 11:58:38;;;;;;;10.77;8.15;;;15.50;44.10;;;;;;4966887;28;20170;-75
2021/04/21 12:01:04;;;;;;;13.00;8.05;;;15.50;43.50;;;;;;4972969;28;20092;-76
2021/04/21 12:03:38;;;;;;;11.48;7.80;;;15.50;43.70;;;;;;4968007;28;20089;-76
2021/04/21 12:06:08;;;;;;;14.35;8.40;;;15.50;43.80;;;;;;4977365;28;20528;-75
2021/04/21 12:08:38;;;;;;;12.55;7.93;;;15.50;43.70;;;;;;4966484;28;20031;-76
2021/04/21 12:11:05;;;;;;;12.15;7.47;;;15.50;41.60;;;;;;4974148;28;20105;-76
2021/04/21 12:13:31;;;;;;;13.57;8.13;;;15.50;43.00;;;;;;4966171;28;20019;-76
2021/04/21 12:16:11;;;;;;;13.00;8.52;;;15.50;43.90;;;;;;4969337;28;20041;-76
2021/04/21 12:18:45;;;;;;;13.45;8.50;;;15.60;44.10;;;;;;4964857;28;20660;-76
2021/04/21 12:21:17;;;;;;;15.68;8.68;;;15.80;45.60;;;;;;4974816;28;20035;-76
2021/04/21 12:23:44;;;;;;;15.88;9.02;;;15.80;45.80;;;;;;4966561;28;20019;-76
2021/04/21 12:26:19;;;;;;;16.27;8.77;;;15.80;44.40;;;;;;4968368;28;20085;-76
2021/04/21 12:28:51;;;;;;;16.20;8.55;;;15.90;45.20;;;;;;4964528;28;20447;-74
2021/04/21 12:31:18;;;;;;;13.70;7.22;;;15.90;44.00;;;;;;4965586;28;20035;-76
2021/04/21 12:33:44;;;;;;;9.50;5.95;;;16.10;42.10;;;;;;4961745;28;20023;-75
2021/04/21 12:36:10;;;;;;;11.70;6.55;;;16.10;38.70;;;;;;4966821;28;20015;-76
2021/04/21 12:38:37;;;;;;;8.43;5.40;;;16.00;40.50;;;;;;4964242;28;20019;-75
2021/04/21 12:41:04;;;;;;;10.13;6.50;;;16.10;40.70;;;;;;4964624;28;20023;-76
2021/04/21 12:43:33;;;;;;;9.10;5.60;;;16.20;40.30;;;;;;4966065;28;20027;-76
2021/04/21 12:46:12;;;;;;;11.63;6.57;;;16.20;42.60;;;;;;4968776;28;20341;-76
2021/04/21 12:48:52;;;;;;;9.50;6.45;;;16.20;40.10;;;;;;4965001;28;20023;-76
2021/04/21 12:51:31;;;;;;;10.27;6.15;;;16.20;40.60;;;;;;4966557;28;20027;-76
2021/04/21 12:54:02;;;;;;;11.77;6.18;;;16.20;39.30;;;;;;4967545;28;20063;-76
2021/04/21 12:56:54;;;;;;;10.65;6.90;;;16.10;39.70;;;;;;4964794;28;20715;-76
2021/04/21 12:59:19;;;;;;;12.80;8.30;;;16.00;43.40;;;;;;4964544;28;20525;-74
2021/04/21 13:01:46;;;;;;;11.10;6.72;;;15.50;46.10;;;;;;4984718;28;20050;-75
2021/04/21 13:04:15;;;;;;;9.43;6.18;;;15.00;47.40;;;;;;4965282;28;20160;-76
2021/04/21 13:06:45;;;;;;;10.65;6.85;;;14.70;49.50;;;;;;4967986;28;20386;-75
2021/04/21 13:09:20;;;;;;;10.13;6.93;;;14.40;49.60;;;;;;4962085;28;20123;-76
2021/04/21 13:11:59;;;;;;;10.50;7.13;;;14.20;49.50;;;;;;4976822;28;20082;-76
2021/04/21 13:14:39;;;;;;;14.52;6.60;;;14.10;50.40;;;;;;4962095;28;20593;-76
2021/04/21 13:17:05;;;;;;;10.00;6.40;;;14.10;52.20;;;;;;4973426;28;20023;-77
2021/04/21 13:19:33;;;;;;;11.38;6.18;;;14.20;53.10;;;;;;4961880;28;20240;-76
2021/04/21 13:22:04;;;;;;;8.03;5.77;;;14.10;53.50;;;;;;4964712;28;20023;-76
2021/04/21 13:24:47;;;;;;;9.93;6.43;;;14.00;53.80;;;;;;4960635;28;20481;-74
2021/04/21 13:27:34;;;;;;;8.63;6.05;;;13.90;54.70;;;;;;4959317;28;20046;-74